Terminal Aerodrome Forecast
Issued by NWS Cleveland, OH

Home | Current Version | Previous Version | Graphics & Text | Print | Product List | Glossary On
Versions: 1 2 3 4 5 6 7 8 9 10 11 12 13 14 15 16 17 18
000
FTUS41 KCLE 291000 AAA
TAFMFD
TAF AMD
KMFD 291028Z 2910/3006 15014G22KT P6SM OVC080
     FM291300 16015G25KT P6SM OVC050
      TEMPO 2913/2915 -FZRA SCT012 OVC035
     FM291500 18015G25KT 4SM -FZRA BR OVC012
      TEMPO 2915/2918 2SM -FZRASNPL BR OVC008
     FM291800 22010G20KT 2SM -RA BR OVC007
     FM292200 27010G20KT 2SM -SN BR OVC007
     FM300400 29010G20KT P6SM OVC015=

USA.gov is the U.S. government's official web portal to all federal, state and local government web resources and services.